Weather at El Tari Airport

Public forecast

Using degrees Celsius for public forecast. Weather courtesy of forecast.io.

Current aviation weather report (METAR) for El Tari Airport

Retrieved 2021/06/17 00:30 UTC (30 minutes ago):

WATT 170030Z 12010KT 9999 FEW018 28/21 Q1015 NOSIG

Aviation forecast (TAF) for El Tari Airport

Retrieved 2021-06-17 00:00 UTC (60 minutes ago):

TAF WATT 162300Z 1700/1724 13010KT 9000 SCT018